sensor_id;sensor_type;location;lat;lon;timestamp;P1;durP1;ratioP1;P2;durP2;ratioP2
20090;SDS011;10205;49.678;6.560;2023-04-15T00:00:37;2.83;;;2.40;;
20090;SDS011;10205;49.678;6.560;2023-04-15T00:03:05;5.57;;;2.13;;
20090;SDS011;10205;49.678;6.560;2023-04-15T00:05:32;2.78;;;2.05;;
20090;SDS011;10205;49.678;6.560;2023-04-15T00:08:01;2.83;;;2.35;;
20090;SDS011;10205;49.678;6.560;2023-04-15T00:10:28;3.08;;;2.03;;
20090;SDS011;10205;49.678;6.560;2023-04-15T00:12:55;4.55;;;2.50;;
20090;SDS011;10205;49.678;6.560;2023-04-15T00:15:24;2.58;;;2.10;;
20090;SDS011;10205;49.678;6.560;2023-04-15T00:17:52;2.75;;;2.38;;
20090;SDS011;10205;49.678;6.560;2023-04-15T00:20:22;2.30;;;2.03;;
20090;SDS011;10205;49.678;6.560;2023-04-15T00:22:49;3.20;;;2.30;;
20090;SDS011;10205;49.678;6.560;2023-04-15T00:25:20;2.53;;;2.08;;
20090;SDS011;10205;49.678;6.560;2023-04-15T00:27:47;3.03;;;2.10;;
20090;SDS011;10205;49.678;6.560;2023-04-15T00:30:17;3.20;;;2.50;;
20090;SDS011;10205;49.678;6.560;2023-04-15T00:32:45;3.17;;;2.58;;
20090;SDS011;10205;49.678;6.560;2023-04-15T00:35:13;4.78;;;2.60;;
20090;SDS011;10205;49.678;6.560;2023-04-15T00:37:40;3.63;;;2.45;;
20090;SDS011;10205;49.678;6.560;2023-04-15T00:40:09;3.08;;;2.20;;
20090;SDS011;10205;49.678;6.560;2023-04-15T00:42:40;3.90;;;2.30;;
20090;SDS011;10205;49.678;6.560;2023-04-15T00:45:07;3.15;;;2.40;;
20090;SDS011;10205;49.678;6.560;2023-04-15T00:47:36;2.65;;;2.20;;
20090;SDS011;10205;49.678;6.560;2023-04-15T00:50:07;3.55;;;2.35;;
20090;SDS011;10205;49.678;6.560;2023-04-15T00:52:35;3.08;;;2.30;;
20090;SDS011;10205;49.678;6.560;2023-04-15T00:55:03;3.90;;;2.42;;
20090;SDS011;10205;49.678;6.560;2023-04-15T00:57:31;3.17;;;2.22;;
20090;SDS011;10205;49.678;6.560;2023-04-15T01:00:00;3.25;;;2.33;;
20090;SDS011;10205;49.678;6.560;2023-04-15T01:02:29;3.42;;;2.28;;
20090;SDS011;10205;49.678;6.560;2023-04-15T01:04:57;2.08;;;1.90;;
20090;SDS011;10205;49.678;6.560;2023-04-15T01:07:24;2.95;;;2.47;;
20090;SDS011;10205;49.678;6.560;2023-04-15T01:09:52;3.40;;;2.20;;
20090;SDS011;10205;49.678;6.560;2023-04-15T01:12:19;2.42;;;1.95;;
20090;SDS011;10205;49.678;6.560;2023-04-15T01:14:46;2.13;;;1.77;;
20090;SDS011;10205;49.678;6.560;2023-04-15T01:17:15;2.97;;;2.10;;
20090;SDS011;10205;49.678;6.560;2023-04-15T01:19:43;2.92;;;2.38;;
20090;SDS011;10205;49.678;6.560;2023-04-15T01:22:10;2.70;;;2.03;;
20090;SDS011;10205;49.678;6.560;2023-04-15T01:24:38;2.45;;;2.00;;
20090;SDS011;10205;49.678;6.560;2023-04-15T01:27:09;2.97;;;2.10;;
20090;SDS011;10205;49.678;6.560;2023-04-15T01:29:37;2.65;;;2.00;;
20090;SDS011;10205;49.678;6.560;2023-04-15T01:32:05;3.15;;;2.38;;
20090;SDS011;10205;49.678;6.560;2023-04-15T01:34:33;4.35;;;2.33;;
20090;SDS011;10205;49.678;6.560;2023-04-15T01:37:00;2.70;;;2.20;;
20090;SDS011;10205;49.678;6.560;2023-04-15T01:39:27;2.95;;;2.10;;
20090;SDS011;10205;49.678;6.560;2023-04-15T01:41:54;3.03;;;2.28;;
20090;SDS011;10205;49.678;6.560;2023-04-15T01:44:23;2.50;;;2.00;;
20090;SDS011;10205;49.678;6.560;2023-04-15T01:46:51;2.13;;;1.90;;
20090;SDS011;10205;49.678;6.560;2023-04-15T01:49:18;2.88;;;2.00;;
20090;SDS011;10205;49.678;6.560;2023-04-15T01:51:46;3.22;;;2.15;;
20090;SDS011;10205;49.678;6.560;2023-04-15T01:54:13;2.03;;;1.83;;
20090;SDS011;10205;49.678;6.560;2023-04-15T01:56:40;3.08;;;2.10;;
20090;SDS011;10205;49.678;6.560;2023-04-15T01:59:08;3.22;;;2.70;;
20090;SDS011;10205;49.678;6.560;2023-04-15T02:01:36;2.65;;;2.00;;
20090;SDS011;10205;49.678;6.560;2023-04-15T02:04:03;3.10;;;2.33;;
20090;SDS011;10205;49.678;6.560;2023-04-15T02:06:32;3.33;;;2.20;;
20090;SDS011;10205;49.678;6.560;2023-04-15T02:08:59;3.92;;;2.20;;
20090;SDS011;10205;49.678;6.560;2023-04-15T02:11:26;3.08;;;2.25;;
20090;SDS011;10205;49.678;6.560;2023-04-15T02:13:53;2.60;;;1.90;;
20090;SDS011;10205;49.678;6.560;2023-04-15T02:16:20;2.95;;;2.10;;
20090;SDS011;10205;49.678;6.560;2023-04-15T02:18:49;3.53;;;2.08;;
20090;SDS011;10205;49.678;6.560;2023-04-15T02:21:18;3.67;;;2.20;;
20090;SDS011;10205;49.678;6.560;2023-04-15T02:23:45;3.00;;;2.08;;
20090;SDS011;10205;49.678;6.560;2023-04-15T02:26:13;3.03;;;2.47;;
20090;SDS011;10205;49.678;6.560;2023-04-15T02:28:40;2.95;;;1.73;;
20090;SDS011;10205;49.678;6.560;2023-04-15T02:31:07;3.28;;;2.40;;
20090;SDS011;10205;49.678;6.560;2023-04-15T02:33:34;2.50;;;2.25;;
20090;SDS011;10205;49.678;6.560;2023-04-15T02:36:03;2.20;;;1.95;;
20090;SDS011;10205;49.678;6.560;2023-04-15T02:38:31;5.05;;;2.00;;
20090;SDS011;10205;49.678;6.560;2023-04-15T02:40:59;2.33;;;1.73;;
20090;SDS011;10205;49.678;6.560;2023-04-15T02:43:27;3.08;;;2.17;;
20090;SDS011;10205;49.678;6.560;2023-04-15T02:45:54;3.83;;;2.28;;
20090;SDS011;10205;49.678;6.560;2023-04-15T02:48:21;2.78;;;2.33;;
20090;SDS011;10205;49.678;6.560;2023-04-15T02:50:48;2.40;;;1.80;;
20090;SDS011;10205;49.678;6.560;2023-04-15T02:53:16;2.85;;;2.13;;
20090;SDS011;10205;49.678;6.560;2023-04-15T02:55:44;4.95;;;2.20;;
20090;SDS011;10205;49.678;6.560;2023-04-15T02:58:11;2.50;;;2.10;;
20090;SDS011;10205;49.678;6.560;2023-04-15T03:00:41;3.92;;;2.03;;
20090;SDS011;10205;49.678;6.560;2023-04-15T03:03:08;3.15;;;2.13;;
20090;SDS011;10205;49.678;6.560;2023-04-15T03:05:35;2.13;;;1.92;;
20090;SDS011;10205;49.678;6.560;2023-04-15T03:08:03;2.55;;;1.98;;
20090;SDS011;10205;49.678;6.560;2023-04-15T03:10:32;2.20;;;2.00;;
20090;SDS011;10205;49.678;6.560;2023-04-15T03:12:59;3.08;;;2.10;;
20090;SDS011;10205;49.678;6.560;2023-04-15T03:15:26;2.80;;;2.00;;
20090;SDS011;10205;49.678;6.560;2023-04-15T03:17:53;1.90;;;1.70;;
20090;SDS011;10205;49.678;6.560;2023-04-15T03:20:20;2.35;;;1.98;;
20090;SDS011;10205;49.678;6.560;2023-04-15T03:22:48;3.67;;;1.92;;
20090;SDS011;10205;49.678;6.560;2023-04-15T03:25:15;2.20;;;1.90;;
20090;SDS011;10205;49.678;6.560;2023-04-15T03:27:44;4.03;;;1.90;;
20090;SDS011;10205;49.678;6.560;2023-04-15T03:30:11;2.95;;;2.08;;
20090;SDS011;10205;49.678;6.560;2023-04-15T03:32:39;4.38;;;1.90;;
20090;SDS011;10205;49.678;6.560;2023-04-15T03:35:06;2.75;;;2.05;;
20090;SDS011;10205;49.678;6.560;2023-04-15T03:37:34;3.38;;;1.83;;
20090;SDS011;10205;49.678;6.560;2023-04-15T03:40:02;3.58;;;1.90;;
20090;SDS011;10205;49.678;6.560;2023-04-15T03:42:29;1.70;;;1.60;;
20090;SDS011;10205;49.678;6.560;2023-04-15T03:44:58;3.08;;;1.70;;
20090;SDS011;10205;49.678;6.560;2023-04-15T03:47:25;3.67;;;1.83;;
20090;SDS011;10205;49.678;6.560;2023-04-15T03:49:52;3.58;;;1.80;;
20090;SDS011;10205;49.678;6.560;2023-04-15T03:52:19;2.58;;;2.10;;
20090;SDS011;10205;49.678;6.560;2023-04-15T03:54:46;3.35;;;1.80;;
20090;SDS011;10205;49.678;6.560;2023-04-15T03:57:14;2.92;;;1.88;;
20090;SDS011;10205;49.678;6.560;2023-04-15T03:59:41;3.20;;;1.80;;
20090;SDS011;10205;49.678;6.560;2023-04-15T04:02:09;4.43;;;2.28;;
20090;SDS011;10205;49.678;6.560;2023-04-15T04:04:38;2.65;;;1.90;;
20090;SDS011;10205;49.678;6.560;2023-04-15T04:07:05;2.63;;;1.83;;
20090;SDS011;10205;49.678;6.560;2023-04-15T04:09:32;2.67;;;2.00;;
20090;SDS011;10205;49.678;6.560;2023-04-15T04:12:00;2.00;;;1.80;;
20090;SDS011;10205;49.678;6.560;2023-04-15T04:14:28;3.28;;;1.88;;
20090;SDS011;10205;49.678;6.560;2023-04-15T04:16:55;2.97;;;1.92;;
20090;SDS011;10205;49.678;6.560;2023-04-15T04:19:24;2.15;;;1.60;;
20090;SDS011;10205;49.678;6.560;2023-04-15T04:21:51;3.88;;;1.90;;
20090;SDS011;10205;49.678;6.560;2023-04-15T04:24:18;2.85;;;1.80;;
20090;SDS011;10205;49.678;6.560;2023-04-15T04:26:45;3.70;;;1.70;;
20090;SDS011;10205;49.678;6.560;2023-04-15T04:29:12;2.65;;;1.90;;
20090;SDS011;10205;49.678;6.560;2023-04-15T04:31:39;2.72;;;1.73;;
20090;SDS011;10205;49.678;6.560;2023-04-15T04:34:06;3.60;;;1.98;;
20090;SDS011;10205;49.678;6.560;2023-04-15T04:36:35;2.30;;;1.70;;
20090;SDS011;10205;49.678;6.560;2023-04-15T04:39:02;2.85;;;1.90;;
20090;SDS011;10205;49.678;6.560;2023-04-15T04:41:29;3.35;;;1.80;;
20090;SDS011;10205;49.678;6.560;2023-04-15T04:43:57;2.33;;;1.63;;
20090;SDS011;10205;49.678;6.560;2023-04-15T04:46:24;2.65;;;1.80;;
20090;SDS011;10205;49.678;6.560;2023-04-15T04:48:51;3.50;;;2.00;;
20090;SDS011;10205;49.678;6.560;2023-04-15T04:51:18;2.08;;;1.70;;
20090;SDS011;10205;49.678;6.560;2023-04-15T04:53:47;2.60;;;1.77;;
20090;SDS011;10205;49.678;6.560;2023-04-15T04:56:14;2.97;;;2.20;;
20090;SDS011;10205;49.678;6.560;2023-04-15T04:58:42;2.00;;;1.60;;
20090;SDS011;10205;49.678;6.560;2023-04-15T05:01:09;4.82;;;2.00;;
20090;SDS011;10205;49.678;6.560;2023-04-15T05:03:37;2.25;;;1.75;;
20090;SDS011;10205;49.678;6.560;2023-04-15T05:06:04;3.90;;;1.90;;
20090;SDS011;10205;49.678;6.560;2023-04-15T05:08:33;2.55;;;1.73;;
20090;SDS011;10205;49.678;6.560;2023-04-15T05:11:02;3.17;;;1.88;;
20090;SDS011;10205;49.678;6.560;2023-04-15T05:13:29;4.90;;;2.03;;
20090;SDS011;10205;49.678;6.560;2023-04-15T05:15:56;2.90;;;2.10;;
20090;SDS011;10205;49.678;6.560;2023-04-15T05:18:23;3.58;;;1.95;;
20090;SDS011;10205;49.678;6.560;2023-04-15T05:20:51;3.65;;;1.90;;
20090;SDS011;10205;49.678;6.560;2023-04-15T05:23:18;4.88;;;1.90;;
20090;SDS011;10205;49.678;6.560;2023-04-15T05:25:45;2.70;;;1.98;;
20090;SDS011;10205;49.678;6.560;2023-04-15T05:28:14;1.80;;;1.70;;
20090;SDS011;10205;49.678;6.560;2023-04-15T05:30:41;2.03;;;1.80;;
20090;SDS011;10205;49.678;6.560;2023-04-15T05:33:08;3.10;;;1.73;;
20090;SDS011;10205;49.678;6.560;2023-04-15T05:35:38;2.30;;;1.60;;
20090;SDS011;10205;49.678;6.560;2023-04-15T05:38:06;2.90;;;2.25;;
20090;SDS011;10205;49.678;6.560;2023-04-15T05:40:33;2.35;;;1.70;;
20090;SDS011;10205;49.678;6.560;2023-04-15T05:43:00;2.75;;;1.60;;
20090;SDS011;10205;49.678;6.560;2023-04-15T05:45:29;2.67;;;1.55;;
20090;SDS011;10205;49.678;6.560;2023-04-15T05:47:56;2.17;;;1.80;;
20090;SDS011;10205;49.678;6.560;2023-04-15T05:50:27;1.60;;;1.50;;
20090;SDS011;10205;49.678;6.560;2023-04-15T05:52:54;2.10;;;1.95;;
20090;SDS011;10205;49.678;6.560;2023-04-15T05:55:21;2.53;;;1.80;;
20090;SDS011;10205;49.678;6.560;2023-04-15T05:57:49;2.58;;;1.70;;
20090;SDS011;10205;49.678;6.560;2023-04-15T06:00:16;2.88;;;1.63;;
20090;SDS011;10205;49.678;6.560;2023-04-15T06:02:45;2.70;;;1.80;;
20090;SDS011;10205;49.678;6.560;2023-04-15T06:05:12;3.03;;;1.98;;
20090;SDS011;10205;49.678;6.560;2023-04-15T06:07:39;4.70;;;1.73;;
20090;SDS011;10205;49.678;6.560;2023-04-15T06:10:08;3.40;;;1.58;;
20090;SDS011;10205;49.678;6.560;2023-04-15T06:12:35;3.15;;;1.67;;
20090;SDS011;10205;49.678;6.560;2023-04-15T06:15:03;5.80;;;1.90;;
20090;SDS011;10205;49.678;6.560;2023-04-15T06:17:34;2.95;;;2.03;;
20090;SDS011;10205;49.678;6.560;2023-04-15T06:20:03;4.38;;;1.83;;
20090;SDS011;10205;49.678;6.560;2023-04-15T06:22:32;2.40;;;1.77;;
20090;SDS011;10205;49.678;6.560;2023-04-15T06:24:59;2.17;;;1.70;;
20090;SDS011;10205;49.678;6.560;2023-04-15T06:27:27;2.80;;;1.48;;
20090;SDS011;10205;49.678;6.560;2023-04-15T06:29:54;3.63;;;2.03;;
20090;SDS011;10205;49.678;6.560;2023-04-15T06:32:21;2.90;;;1.70;;
20090;SDS011;10205;49.678;6.560;2023-04-15T06:34:49;2.88;;;2.00;;
20090;SDS011;10205;49.678;6.560;2023-04-15T06:37:17;2.28;;;1.60;;
20090;SDS011;10205;49.678;6.560;2023-04-15T06:39:44;2.20;;;1.80;;
20090;SDS011;10205;49.678;6.560;2023-04-15T06:42:11;2.85;;;2.13;;
20090;SDS011;10205;49.678;6.560;2023-04-15T06:44:39;2.60;;;1.60;;
20090;SDS011;10205;49.678;6.560;2023-04-15T06:47:06;6.35;;;1.90;;
20090;SDS011;10205;49.678;6.560;2023-04-15T06:49:33;4.90;;;2.13;;
20090;SDS011;10205;49.678;6.560;2023-04-15T06:52:01;2.53;;;1.65;;
20090;SDS011;10205;49.678;6.560;2023-04-15T06:54:30;3.75;;;1.98;;
20090;SDS011;10205;49.678;6.560;2023-04-15T06:56:57;3.42;;;1.92;;
20090;SDS011;10205;49.678;6.560;2023-04-15T06:59:24;3.25;;;1.88;;
20090;SDS011;10205;49.678;6.560;2023-04-15T07:01:51;2.28;;;1.90;;
20090;SDS011;10205;49.678;6.560;2023-04-15T07:04:19;3.33;;;2.10;;
20090;SDS011;10205;49.678;6.560;2023-04-15T07:06:46;3.03;;;2.05;;
20090;SDS011;10205;49.678;6.560;2023-04-15T07:09:14;3.50;;;1.75;;
20090;SDS011;10205;49.678;6.560;2023-04-15T07:11:42;2.28;;;1.83;;
20090;SDS011;10205;49.678;6.560;2023-04-15T07:14:09;4.95;;;1.95;;
20090;SDS011;10205;49.678;6.560;2023-04-15T07:16:36;2.47;;;1.50;;
20090;SDS011;10205;49.678;6.560;2023-04-15T07:19:04;2.85;;;1.90;;
20090;SDS011;10205;49.678;6.560;2023-04-15T07:21:31;2.33;;;1.50;;
20090;SDS011;10205;49.678;6.560;2023-04-15T07:23:58;2.63;;;1.70;;
20090;SDS011;10205;49.678;6.560;2023-04-15T07:26:25;2.65;;;1.73;;
20090;SDS011;10205;49.678;6.560;2023-04-15T07:28:54;2.63;;;2.20;;
20090;SDS011;10205;49.678;6.560;2023-04-15T07:31:21;2.15;;;1.60;;
20090;SDS011;10205;49.678;6.560;2023-04-15T07:33:49;3.78;;;2.05;;
20090;SDS011;10205;49.678;6.560;2023-04-15T07:36:16;2.47;;;1.60;;
20090;SDS011;10205;49.678;6.560;2023-04-15T07:38:43;4.03;;;2.17;;
20090;SDS011;10205;49.678;6.560;2023-04-15T07:41:10;2.92;;;1.52;;
20090;SDS011;10205;49.678;6.560;2023-04-15T07:43:38;2.53;;;1.50;;
20090;SDS011;10205;49.678;6.560;2023-04-15T07:46:06;3.15;;;1.50;;
20090;SDS011;10205;49.678;6.560;2023-04-15T07:48:33;3.17;;;2.05;;
20090;SDS011;10205;49.678;6.560;2023-04-15T07:51:01;2.35;;;1.42;;
20090;SDS011;10205;49.678;6.560;2023-04-15T07:53:28;5.15;;;1.70;;
20090;SDS011;10205;49.678;6.560;2023-04-15T07:55:58;2.42;;;1.45;;
20090;SDS011;10205;49.678;6.560;2023-04-15T07:58:25;2.10;;;1.50;;
20090;SDS011;10205;49.678;6.560;2023-04-15T08:00:52;2.50;;;1.50;;
20090;SDS011;10205;49.678;6.560;2023-04-15T08:03:21;1.85;;;1.58;;
20090;SDS011;10205;49.678;6.560;2023-04-15T08:05:48;1.80;;;1.70;;
20090;SDS011;10205;49.678;6.560;2023-04-15T08:08:16;4.80;;;1.80;;
20090;SDS011;10205;49.678;6.560;2023-04-15T08:10:43;1.80;;;1.67;;
20090;SDS011;10205;49.678;6.560;2023-04-15T08:13:10;3.60;;;1.55;;
20090;SDS011;10205;49.678;6.560;2023-04-15T08:15:38;3.00;;;1.77;;
20090;SDS011;10205;49.678;6.560;2023-04-15T08:18:05;3.63;;;1.58;;
20090;SDS011;10205;49.678;6.560;2023-04-15T08:20:33;2.83;;;1.40;;
20090;SDS011;10205;49.678;6.560;2023-04-15T08:23:01;3.47;;;1.67;;
20090;SDS011;10205;49.678;6.560;2023-04-15T08:25:28;3.60;;;1.58;;
20090;SDS011;10205;49.678;6.560;2023-04-15T08:27:56;3.25;;;1.58;;
20090;SDS011;10205;49.678;6.560;2023-04-15T08:30:23;2.88;;;1.42;;
20090;SDS011;10205;49.678;6.560;2023-04-15T08:32:50;2.00;;;1.20;;
20090;SDS011;10205;49.678;6.560;2023-04-15T08:35:17;1.52;;;1.25;;
20090;SDS011;10205;49.678;6.560;2023-04-15T08:37:46;3.30;;;1.50;;
20090;SDS011;10205;49.678;6.560;2023-04-15T08:40:13;3.80;;;1.80;;
20090;SDS011;10205;49.678;6.560;2023-04-15T08:42:43;1.88;;;1.30;;
20090;SDS011;10205;49.678;6.560;2023-04-15T08:45:14;3.67;;;1.83;;
20090;SDS011;10205;49.678;6.560;2023-04-15T08:47:43;2.85;;;1.60;;
20090;SDS011;10205;49.678;6.560;2023-04-15T08:50:14;4.57;;;1.55;;
20090;SDS011;10205;49.678;6.560;2023-04-15T08:52:42;3.00;;;1.42;;
20090;SDS011;10205;49.678;6.560;2023-04-15T08:55:11;2.50;;;1.50;;
20090;SDS011;10205;49.678;6.560;2023-04-15T08:57:40;2.78;;;1.83;;
20090;SDS011;10205;49.678;6.560;2023-04-15T09:00:08;1.98;;;1.50;;
20090;SDS011;10205;49.678;6.560;2023-04-15T09:02:36;4.38;;;1.77;;
20090;SDS011;10205;49.678;6.560;2023-04-15T09:05:05;2.45;;;1.40;;
20090;SDS011;10205;49.678;6.560;2023-04-15T09:07:33;2.65;;;1.73;;
20090;SDS011;10205;49.678;6.560;2023-04-15T09:10:01;2.40;;;1.40;;
20090;SDS011;10205;49.678;6.560;2023-04-15T09:12:32;3.72;;;2.13;;
20090;SDS011;10205;49.678;6.560;2023-04-15T09:15:01;4.30;;;1.38;;
20090;SDS011;10205;49.678;6.560;2023-04-15T09:17:28;4.93;;;1.52;;
20090;SDS011;10205;49.678;6.560;2023-04-15T09:20:08;4.90;;;1.48;;
20090;SDS011;10205;49.678;6.560;2023-04-15T09:22:38;4.47;;;1.60;;
20090;SDS011;10205;49.678;6.560;2023-04-15T09:27:54;2.63;;;1.17;;
20090;SDS011;10205;49.678;6.560;2023-04-15T09:30:23;3.80;;;1.33;;
20090;SDS011;10205;49.678;6.560;2023-04-15T09:32:51;2.80;;;1.60;;
20090;SDS011;10205;49.678;6.560;2023-04-15T09:35:21;4.35;;;1.40;;
20090;SDS011;10205;49.678;6.560;2023-04-15T09:37:50;1.95;;;1.20;;
20090;SDS011;10205;49.678;6.560;2023-04-15T09:40:29;3.75;;;1.55;;
20090;SDS011;10205;49.678;6.560;2023-04-15T09:43:00;4.03;;;1.60;;
20090;SDS011;10205;49.678;6.560;2023-04-15T09:45:29;3.05;;;1.60;;
20090;SDS011;10205;49.678;6.560;2023-04-15T09:47:58;2.72;;;1.42;;
20090;SDS011;10205;49.678;6.560;2023-04-15T09:50:40;2.70;;;1.20;;
20090;SDS011;10205;49.678;6.560;2023-04-15T09:53:08;2.40;;;1.17;;
20090;SDS011;10205;49.678;6.560;2023-04-15T09:55:36;4.30;;;1.23;;
20090;SDS011;10205;49.678;6.560;2023-04-15T09:58:08;11.23;;;2.15;;
20090;SDS011;10205;49.678;6.560;2023-04-15T10:00:44;3.47;;;1.45;;
20090;SDS011;10205;49.678;6.560;2023-04-15T10:03:15;2.92;;;1.50;;
20090;SDS011;10205;49.678;6.560;2023-04-15T10:05:46;2.35;;;1.20;;
20090;SDS011;10205;49.678;6.560;2023-04-15T10:08:17;2.80;;;1.42;;
20090;SDS011;10205;49.678;6.560;2023-04-15T10:10:46;1.92;;;1.30;;
20090;SDS011;10205;49.678;6.560;2023-04-15T10:13:16;2.67;;;1.40;;
20090;SDS011;10205;49.678;6.560;2023-04-15T10:15:47;4.18;;;1.67;;
20090;SDS011;10205;49.678;6.560;2023-04-15T10:18:18;2.75;;;1.30;;
20090;SDS011;10205;49.678;6.560;2023-04-15T10:20:48;3.08;;;1.08;;
20090;SDS011;10205;49.678;6.560;2023-04-15T10:23:16;3.25;;;1.30;;
20090;SDS011;10205;49.678;6.560;2023-04-15T10:25:45;5.63;;;1.33;;
20090;SDS011;10205;49.678;6.560;2023-04-15T10:28:16;2.83;;;1.40;;
20090;SDS011;10205;49.678;6.560;2023-04-15T10:30:43;2.50;;;1.30;;
20090;SDS011;10205;49.678;6.560;2023-04-15T10:33:12;1.90;;;1.20;;
20090;SDS011;10205;49.678;6.560;2023-04-15T10:35:41;3.53;;;1.40;;
20090;SDS011;10205;49.678;6.560;2023-04-15T10:41:12;2.50;;;1.27;;
20090;SDS011;10205;49.678;6.560;2023-04-15T10:43:47;2.50;;;1.30;;
20090;SDS011;10205;49.678;6.560;2023-04-15T10:49:06;2.63;;;1.50;;
20090;SDS011;10205;49.678;6.560;2023-04-15T10:51:36;3.40;;;1.30;;
20090;SDS011;10205;49.678;6.560;2023-04-15T10:54:07;3.38;;;1.33;;
20090;SDS011;10205;49.678;6.560;2023-04-15T10:56:40;1.38;;;1.00;;
20090;SDS011;10205;49.678;6.560;2023-04-15T10:59:10;3.25;;;1.02;;
20090;SDS011;10205;49.678;6.560;2023-04-15T11:01:50;1.65;;;1.20;;
20090;SDS011;10205;49.678;6.560;2023-04-15T11:07:32;2.40;;;1.10;;
20090;SDS011;10205;49.678;6.560;2023-04-15T11:13:19;2.90;;;1.13;;
20090;SDS011;10205;49.678;6.560;2023-04-15T11:15:53;2.90;;;1.20;;
20090;SDS011;10205;49.678;6.560;2023-04-15T11:18:26;2.05;;;1.20;;
20090;SDS011;10205;49.678;6.560;2023-04-15T11:20:59;1.83;;;0.95;;
20090;SDS011;10205;49.678;6.560;2023-04-15T11:23:34;2.95;;;1.20;;
20090;SDS011;10205;49.678;6.560;2023-04-15T11:26:04;3.58;;;1.20;;
20090;SDS011;10205;49.678;6.560;2023-04-15T11:28:36;3.78;;;1.55;;
20090;SDS011;10205;49.678;6.560;2023-04-15T11:31:08;2.55;;;1.13;;
20090;SDS011;10205;49.678;6.560;2023-04-15T11:33:37;3.97;;;1.30;;
20090;SDS011;10205;49.678;6.560;2023-04-15T11:36:12;3.65;;;1.33;;
20090;SDS011;10205;49.678;6.560;2023-04-15T11:38:41;4.95;;;1.48;;
20090;SDS011;10205;49.678;6.560;2023-04-15T11:41:10;4.35;;;1.13;;
20090;SDS011;10205;49.678;6.560;2023-04-15T11:43:37;2.08;;;1.20;;
20090;SDS011;10205;49.678;6.560;2023-04-15T11:46:06;2.45;;;1.30;;
20090;SDS011;10205;49.678;6.560;2023-04-15T11:48:34;1.92;;;1.10;;
20090;SDS011;10205;49.678;6.560;2023-04-15T11:51:02;2.03;;;1.15;;
20090;SDS011;10205;49.678;6.560;2023-04-15T11:53:35;2.05;;;1.05;;
20090;SDS011;10205;49.678;6.560;2023-04-15T11:56:05;3.42;;;1.67;;
20090;SDS011;10205;49.678;6.560;2023-04-15T11:58:34;2.33;;;1.60;;
20090;SDS011;10205;49.678;6.560;2023-04-15T12:01:04;2.67;;;1.42;;
20090;SDS011;10205;49.678;6.560;2023-04-15T12:03:36;2.05;;;1.35;;
20090;SDS011;10205;49.678;6.560;2023-04-15T12:06:06;2.75;;;1.33;;
20090;SDS011;10205;49.678;6.560;2023-04-15T12:08:47;1.33;;;1.13;;
20090;SDS011;10205;49.678;6.560;2023-04-15T12:11:28;2.38;;;1.17;;
20090;SDS011;10205;49.678;6.560;2023-04-15T12:14:17;6.20;;;1.70;;
20090;SDS011;10205;49.678;6.560;2023-04-15T12:16:49;3.63;;;1.30;;
20090;SDS011;10205;49.678;6.560;2023-04-15T12:19:21;2.28;;;1.10;;
20090;SDS011;10205;49.678;6.560;2023-04-15T12:21:52;1.55;;;1.10;;
20090;SDS011;10205;49.678;6.560;2023-04-15T12:24:24;3.38;;;1.30;;
20090;SDS011;10205;49.678;6.560;2023-04-15T12:26:52;2.00;;;1.27;;
20090;SDS011;10205;49.678;6.560;2023-04-15T12:29:24;1.85;;;1.25;;
20090;SDS011;10205;49.678;6.560;2023-04-15T12:31:55;6.28;;;1.20;;
20090;SDS011;10205;49.678;6.560;2023-04-15T12:34:27;3.28;;;1.13;;
20090;SDS011;10205;49.678;6.560;2023-04-15T12:36:56;2.33;;;0.93;;
20090;SDS011;10205;49.678;6.560;2023-04-15T12:39:26;5.35;;;1.13;;
20090;SDS011;10205;49.678;6.560;2023-04-15T12:41:56;1.50;;;1.10;;
20090;SDS011;10205;49.678;6.560;2023-04-15T12:44:24;3.22;;;1.00;;
20090;SDS011;10205;49.678;6.560;2023-04-15T12:46:51;1.55;;;1.08;;
20090;SDS011;10205;49.678;6.560;2023-04-15T12:49:22;2.63;;;1.08;;
20090;SDS011;10205;49.678;6.560;2023-04-15T12:51:50;2.50;;;1.10;;
20090;SDS011;10205;49.678;6.560;2023-04-15T12:54:20;2.70;;;1.02;;
20090;SDS011;10205;49.678;6.560;2023-04-15T12:56:48;1.55;;;0.95;;
20090;SDS011;10205;49.678;6.560;2023-04-15T12:59:16;2.15;;;1.25;;
20090;SDS011;10205;49.678;6.560;2023-04-15T13:01:43;2.65;;;1.20;;
20090;SDS011;10205;49.678;6.560;2023-04-15T13:04:13;1.88;;;1.20;;
20090;SDS011;10205;49.678;6.560;2023-04-15T13:06:43;1.45;;;1.10;;
20090;SDS011;10205;49.678;6.560;2023-04-15T13:09:10;1.33;;;1.10;;
20090;SDS011;10205;49.678;6.560;2023-04-15T13:11:38;2.42;;;1.13;;
20090;SDS011;10205;49.678;6.560;2023-04-15T13:14:06;2.75;;;1.40;;
20090;SDS011;10205;49.678;6.560;2023-04-15T13:16:35;1.90;;;1.27;;
20090;SDS011;10205;49.678;6.560;2023-04-15T13:19:02;1.42;;;0.90;;
20090;SDS011;10205;49.678;6.560;2023-04-15T13:21:31;2.55;;;1.38;;
20090;SDS011;10205;49.678;6.560;2023-04-15T13:23:59;1.58;;;1.00;;
20090;SDS011;10205;49.678;6.560;2023-04-15T13:26:26;3.45;;;1.40;;
20090;SDS011;10205;49.678;6.560;2023-04-15T13:28:55;1.85;;;1.10;;
20090;SDS011;10205;49.678;6.560;2023-04-15T13:31:22;1.60;;;1.20;;
20090;SDS011;10205;49.678;6.560;2023-04-15T13:33:49;2.67;;;1.27;;
20090;SDS011;10205;49.678;6.560;2023-04-15T13:36:16;1.15;;;0.98;;
20090;SDS011;10205;49.678;6.560;2023-04-15T13:38:45;2.75;;;1.17;;
20090;SDS011;10205;49.678;6.560;2023-04-15T13:41:12;1.83;;;1.38;;
20090;SDS011;10205;49.678;6.560;2023-04-15T13:43:39;1.95;;;1.23;;
20090;SDS011;10205;49.678;6.560;2023-04-15T13:46:06;1.88;;;1.30;;
20090;SDS011;10205;49.678;6.560;2023-04-15T13:48:33;1.23;;;1.02;;
20090;SDS011;10205;49.678;6.560;2023-04-15T13:51:01;1.58;;;1.20;;
20090;SDS011;10205;49.678;6.560;2023-04-15T13:53:28;2.40;;;1.40;;
20090;SDS011;10205;49.678;6.560;2023-04-15T13:55:56;1.13;;;1.00;;
20090;SDS011;10205;49.678;6.560;2023-04-15T13:58:24;2.03;;;1.20;;
20090;SDS011;10205;49.678;6.560;2023-04-15T14:00:51;1.85;;;1.10;;
20090;SDS011;10205;49.678;6.560;2023-04-15T14:03:18;1.15;;;1.00;;
20090;SDS011;10205;49.678;6.560;2023-04-15T14:05:45;1.42;;;1.13;;
20090;SDS011;10205;49.678;6.560;2023-04-15T14:08:17;1.45;;;1.00;;
20090;SDS011;10205;49.678;6.560;2023-04-15T14:10:47;1.42;;;1.08;;
20090;SDS011;10205;49.678;6.560;2023-04-15T14:13:15;1.65;;;1.20;;
20090;SDS011;10205;49.678;6.560;2023-04-15T14:15:43;1.45;;;1.10;;
20090;SDS011;10205;49.678;6.560;2023-04-15T14:18:10;1.35;;;0.82;;
20090;SDS011;10205;49.678;6.560;2023-04-15T14:20:37;1.60;;;1.17;;
20090;SDS011;10205;49.678;6.560;2023-04-15T14:23:05;1.08;;;0.82;;
20090;SDS011;10205;49.678;6.560;2023-04-15T14:25:32;1.75;;;1.15;;
20090;SDS011;10205;49.678;6.560;2023-04-15T14:27:59;1.30;;;1.20;;
20090;SDS011;10205;49.678;6.560;2023-04-15T14:30:28;1.88;;;1.20;;
20090;SDS011;10205;49.678;6.560;2023-04-15T14:32:56;1.50;;;1.23;;
20090;SDS011;10205;49.678;6.560;2023-04-15T14:35:23;2.35;;;1.30;;
20090;SDS011;10205;49.678;6.560;2023-04-15T14:37:50;1.10;;;1.00;;
20090;SDS011;10205;49.678;6.560;2023-04-15T14:40:19;1.15;;;1.00;;
20090;SDS011;10205;49.678;6.560;2023-04-15T14:42:46;1.05;;;0.95;;
20090;SDS011;10205;49.678;6.560;2023-04-15T14:45:13;1.52;;;1.30;;
20090;SDS011;10205;49.678;6.560;2023-04-15T14:47:43;2.33;;;1.17;;
20090;SDS011;10205;49.678;6.560;2023-04-15T14:50:13;1.73;;;1.30;;
20090;SDS011;10205;49.678;6.560;2023-04-15T14:52:40;0.88;;;0.88;;
20090;SDS011;10205;49.678;6.560;2023-04-15T14:55:08;1.75;;;0.85;;
20090;SDS011;10205;49.678;6.560;2023-04-15T14:57:36;1.88;;;1.10;;
20090;SDS011;10205;49.678;6.560;2023-04-15T15:00:05;1.08;;;0.98;;
20090;SDS011;10205;49.678;6.560;2023-04-15T15:02:34;1.52;;;1.10;;
20090;SDS011;10205;49.678;6.560;2023-04-15T15:05:05;1.10;;;1.00;;
20090;SDS011;10205;49.678;6.560;2023-04-15T15:07:33;2.92;;;1.17;;
20090;SDS011;10205;49.678;6.560;2023-04-15T15:10:01;1.30;;;1.20;;